createdAt,value
2024-05-09T00:04:18.786Z,81
2024-05-09T00:14:18.987Z,81
2024-05-09T00:34:19.310Z,83
2024-05-09T00:44:19.451Z,83
2024-05-09T00:54:19.648Z,83
2024-05-09T01:04:19.899Z,84
2024-05-09T01:14:20.029Z,84
2024-05-09T01:24:20.147Z,85
2024-05-09T01:34:20.363Z,85
2024-05-09T01:44:20.566Z,86
2024-05-09T01:54:20.685Z,86
2024-05-09T02:04:21.082Z,86
2024-05-09T02:14:21.204Z,86
2024-05-09T02:24:21.230Z,86
2024-05-09T02:34:21.472Z,87
2024-05-09T02:44:21.653Z,87
2024-05-09T02:54:21.782Z,87
2024-05-09T03:04:21.978Z,87
2024-05-09T03:14:22.153Z,87
2024-05-09T03:24:22.336Z,87
2024-05-09T03:34:22.517Z,87
2024-05-09T03:44:22.772Z,88
2024-05-09T03:54:22.845Z,88
2024-05-09T04:04:23.067Z,88
2024-05-09T04:14:23.275Z,88
2024-05-09T04:34:23.641Z,89
2024-05-09T04:44:23.896Z,89
2024-05-09T04:54:29.802Z,89
2024-05-09T05:04:24.182Z,89
2024-05-09T05:14:24.335Z,88
2024-05-09T05:24:24.496Z,88
2024-05-09T05:34:24.652Z,87
2024-05-09T05:44:24.892Z,86
2024-05-09T05:54:25.006Z,85
2024-05-09T06:04:25.250Z,84
2024-05-09T06:14:25.416Z,83
2024-05-09T06:34:25.874Z,80
2024-05-09T06:44:25.933Z,78
2024-05-09T06:54:26.092Z,77
2024-05-09T07:04:26.502Z,76
2024-05-09T07:24:26.619Z,74
2024-05-09T07:34:26.939Z,72
2024-05-09T07:44:27.019Z,71
2024-05-09T07:54:27.189Z,68
2024-05-09T08:04:27.454Z,68
2024-05-09T08:14:27.527Z,65
2024-05-09T08:24:27.711Z,65
2024-05-09T08:34:27.958Z,64
2024-05-09T08:44:28.041Z,63
2024-05-09T08:54:28.313Z,62
2024-05-09T09:04:28.499Z,62
2024-05-09T09:14:28.559Z,62
2024-05-09T09:34:29.095Z,58
2024-05-09T09:44:29.116Z,58
2024-05-09T09:54:29.347Z,56
2024-05-09T10:04:29.529Z,56
2024-05-09T10:14:29.624Z,54
2024-05-09T10:24:29.872Z,53
2024-05-09T10:34:30.120Z,52
2024-05-09T10:44:30.185Z,51
2024-05-09T10:54:30.372Z,51
2024-05-09T11:04:30.542Z,51
2024-05-09T11:14:30.687Z,51
2024-05-09T11:34:31.147Z,52
2024-05-09T11:44:31.251Z,52
2024-05-09T11:54:31.482Z,51
2024-05-09T12:04:31.704Z,50
2024-05-09T12:14:31.735Z,49
2024-05-09T12:24:31.960Z,48
2024-05-09T12:34:32.103Z,46
2024-05-09T12:44:32.279Z,46
2024-05-09T12:54:32.457Z,46
2024-05-09T13:04:32.706Z,48
2024-05-09T13:14:32.828Z,49
2024-05-09T13:24:33.070Z,49
2024-05-09T13:34:33.213Z,48
2024-05-09T13:44:33.330Z,47
2024-05-09T13:54:33.527Z,47
2024-05-09T14:24:34.057Z,46
2024-05-09T14:34:34.363Z,47
2024-05-09T14:44:34.385Z,47
2024-05-09T14:54:34.619Z,46
2024-05-09T15:04:34.796Z,46
2024-05-09T15:14:34.949Z,47
2024-05-09T15:24:35.156Z,46
2024-05-09T15:34:35.317Z,45
2024-05-09T15:44:35.472Z,46
2024-05-09T15:54:35.637Z,47
2024-05-09T16:04:35.880Z,46
2024-05-09T16:14:36.000Z,46
2024-05-09T16:24:36.210Z,46
2024-05-09T17:14:37.031Z,50
2024-05-09T17:44:37.569Z,51
2024-05-09T18:54:38.825Z,56
2024-05-09T19:04:39.233Z,56
2024-05-09T19:14:39.193Z,57
2024-05-09T19:24:39.348Z,57
2024-05-09T19:44:39.687Z,59
2024-05-09T20:04:40.110Z,60
2024-05-09T20:14:40.290Z,61
2024-05-09T20:24:40.396Z,62
2024-05-09T20:44:40.781Z,64
2024-05-09T21:04:41.199Z,66
2024-05-09T21:24:41.486Z,67
2024-05-09T21:54:42.005Z,70
2024-05-09T22:04:42.211Z,71
2024-05-09T22:14:42.473Z,71
2024-05-09T22:24:42.566Z,72
2024-05-09T22:34:42.828Z,73
2024-05-09T22:44:42.884Z,73
2024-05-09T22:54:43.143Z,74
2024-05-09T23:04:43.294Z,75
2024-05-09T23:14:43.419Z,76
2024-05-09T23:24:43.661Z,77
2024-05-09T23:34:43.810Z,77
2024-05-09T23:44:43.940Z,76
2024-05-09T23:54:44.250Z,77
